sensor_id;sensor_type;location;lat;lon;timestamp;pressure;altitude;pressure_sealevel;temperature;humidity
23303;BME280;11820;48.738;9.092;2023-04-08T00:01:24;96493.19;;;8.49;nan
23303;BME280;11820;48.738;9.092;2023-04-08T00:03:50;96497.63;;;8.55;nan
23303;BME280;11820;48.738;9.092;2023-04-08T00:06:15;96498.44;;;8.55;nan
23303;BME280;11820;48.738;9.092;2023-04-08T00:08:40;96494.44;;;8.53;nan
23303;BME280;11820;48.738;9.092;2023-04-08T00:11:06;96501.63;;;8.43;nan
23303;BME280;11820;48.738;9.092;2023-04-08T00:13:31;96496.13;;;8.46;nan
23303;BME280;11820;48.738;9.092;2023-04-08T00:15:57;96499.44;;;8.54;nan
23303;BME280;11820;48.738;9.092;2023-04-08T00:18:22;96502.94;;;8.39;nan
23303;BME280;11820;48.738;9.092;2023-04-08T00:20:47;96502.22;;;8.30;nan
23303;BME280;11820;48.738;9.092;2023-04-08T00:23:13;96503.94;;;8.38;nan
23303;BME280;11820;48.738;9.092;2023-04-08T00:25:38;96504.44;;;8.33;nan
23303;BME280;11820;48.738;9.092;2023-04-08T00:28:03;96503.34;;;8.28;nan
23303;BME280;11820;48.738;9.092;2023-04-08T00:30:29;96502.38;;;8.29;nan
23303;BME280;11820;48.738;9.092;2023-04-08T00:32:54;96502.72;;;8.26;nan
23303;BME280;11820;48.738;9.092;2023-04-08T00:35:20;96497.63;;;8.18;nan
23303;BME280;11820;48.738;9.092;2023-04-08T00:37:45;96502.91;;;8.16;nan
23303;BME280;11820;48.738;9.092;2023-04-08T00:40:10;96500.22;;;8.18;nan
23303;BME280;11820;48.738;9.092;2023-04-08T00:42:37;96501.16;;;8.17;nan
23303;BME280;11820;48.738;9.092;2023-04-08T00:45:02;96506.38;;;8.09;nan
23303;BME280;11820;48.738;9.092;2023-04-08T00:47:28;96505.44;;;8.02;nan
23303;BME280;11820;48.738;9.092;2023-04-08T00:49:53;96508.75;;;8.10;nan
23303;BME280;11820;48.738;9.092;2023-04-08T00:52:18;96508.06;;;8.24;nan
23303;BME280;11820;48.738;9.092;2023-04-08T00:54:44;96508.81;;;8.33;nan
23303;BME280;11820;48.738;9.092;2023-04-08T00:57:09;96522.75;;;8.16;nan
23303;BME280;11820;48.738;9.092;2023-04-08T00:59:35;96511.00;;;8.13;nan
23303;BME280;11820;48.738;9.092;2023-04-08T01:05:06;96514.72;;;8.11;nan
23303;BME280;11820;48.738;9.092;2023-04-08T01:07:44;96516.69;;;8.09;nan
23303;BME280;11820;48.738;9.092;2023-04-08T01:10:25;96508.97;;;8.09;nan
23303;BME280;11820;48.738;9.092;2023-04-08T01:12:55;96511.97;;;8.20;nan
23303;BME280;11820;48.738;9.092;2023-04-08T01:15:21;96513.34;;;8.31;nan
23303;BME280;11820;48.738;9.092;2023-04-08T01:17:51;96513.13;;;8.32;nan
23303;BME280;11820;48.738;9.092;2023-04-08T01:20:17;96512.94;;;8.19;nan
23303;BME280;11820;48.738;9.092;2023-04-08T01:25:37;96519.91;;;8.03;nan
23303;BME280;11820;48.738;9.092;2023-04-08T01:28:06;96509.81;;;8.24;nan
23303;BME280;11820;48.738;9.092;2023-04-08T01:30:33;96510.28;;;8.27;nan
23303;BME280;11820;48.738;9.092;2023-04-08T01:33:01;96514.72;;;8.11;nan
23303;BME280;11820;48.738;9.092;2023-04-08T01:35:27;96516.28;;;8.20;nan
23303;BME280;11820;48.738;9.092;2023-04-08T01:37:53;96517.28;;;8.19;nan
23303;BME280;11820;48.738;9.092;2023-04-08T01:40:19;96511.16;;;8.20;nan
23303;BME280;11820;48.738;9.092;2023-04-08T01:42:46;96513.56;;;8.13;nan
23303;BME280;11820;48.738;9.092;2023-04-08T01:45:13;96507.44;;;8.14;nan
23303;BME280;11820;48.738;9.092;2023-04-08T01:47:40;96515.31;;;8.21;nan
23303;BME280;11820;48.738;9.092;2023-04-08T01:50:06;96508.38;;;7.99;nan
23303;BME280;11820;48.738;9.092;2023-04-08T01:52:34;96508.84;;;8.02;nan
23303;BME280;11820;48.738;9.092;2023-04-08T01:55:01;96507.84;;;8.03;nan
23303;BME280;11820;48.738;9.092;2023-04-08T01:57:30;96508.91;;;7.95;nan
23303;BME280;11820;48.738;9.092;2023-04-08T02:00:02;96507.28;;;7.94;nan
23303;BME280;11820;48.738;9.092;2023-04-08T02:02:31;96506.13;;;7.96;nan
23303;BME280;11820;48.738;9.092;2023-04-08T02:04:57;96510.59;;;8.02;nan
23303;BME280;11820;48.738;9.092;2023-04-08T02:07:22;96507.50;;;7.84;nan
23303;BME280;11820;48.738;9.092;2023-04-08T02:09:49;96503.34;;;8.05;nan
23303;BME280;11820;48.738;9.092;2023-04-08T02:12:14;96500.75;;;8.05;nan
23303;BME280;11820;48.738;9.092;2023-04-08T02:14:40;96506.09;;;8.04;nan
23303;BME280;11820;48.738;9.092;2023-04-08T02:22:25;96512.09;;;7.97;nan
23303;BME280;11820;48.738;9.092;2023-04-08T02:24:52;96513.97;;;8.02;nan
23303;BME280;11820;48.738;9.092;2023-04-08T02:27:18;96514.41;;;7.84;nan
23303;BME280;11820;48.738;9.092;2023-04-08T02:29:44;96507.28;;;7.94;nan
23303;BME280;11820;48.738;9.092;2023-04-08T02:32:10;96519.97;;;7.95;nan
23303;BME280;11820;48.738;9.092;2023-04-08T02:34:39;96512.25;;;7.95;nan
23303;BME280;11820;48.738;9.092;2023-04-08T02:37:06;96514.38;;;8.14;nan
23303;BME280;11820;48.738;9.092;2023-04-08T02:39:32;96517.66;;;8.08;nan
23303;BME280;11820;48.738;9.092;2023-04-08T02:41:58;96512.31;;;8.09;nan
23303;BME280;11820;48.738;9.092;2023-04-08T02:44:23;96516.72;;;8.01;nan
23303;BME280;11820;48.738;9.092;2023-04-08T02:46:49;96517.66;;;8.08;nan
23303;BME280;11820;48.738;9.092;2023-04-08T02:49:14;96517.66;;;8.08;nan
23303;BME280;11820;48.738;9.092;2023-04-08T02:51:40;96517.31;;;8.11;nan
23303;BME280;11820;48.738;9.092;2023-04-08T02:54:05;96512.88;;;7.97;nan
23303;BME280;11820;48.738;9.092;2023-04-08T02:56:30;96516.06;;;8.07;nan
23303;BME280;11820;48.738;9.092;2023-04-08T02:58:56;96517.88;;;7.98;nan
23303;BME280;11820;48.738;9.092;2023-04-08T03:01:21;96516.78;;;7.93;nan
23303;BME280;11820;48.738;9.092;2023-04-08T03:03:46;96518.22;;;7.96;nan
23303;BME280;11820;48.738;9.092;2023-04-08T03:06:12;96521.63;;;7.88;nan
23303;BME280;11820;48.738;9.092;2023-04-08T03:08:37;96524.13;;;8.04;nan
23303;BME280;11820;48.738;9.092;2023-04-08T03:11:02;96519.19;;;7.95;nan
23303;BME280;11820;48.738;9.092;2023-04-08T03:13:27;96511.97;;;7.90;nan
23303;BME280;11820;48.738;9.092;2023-04-08T03:15:54;96513.22;;;7.72;nan
23303;BME280;11820;48.738;9.092;2023-04-08T03:18:19;96516.50;;;7.88;nan
23303;BME280;11820;48.738;9.092;2023-04-08T03:20:45;96512.53;;;7.78;nan
23303;BME280;11820;48.738;9.092;2023-04-08T03:23:10;96512.44;;;7.94;nan
23303;BME280;11820;48.738;9.092;2023-04-08T03:25:36;96520.72;;;7.81;nan
23303;BME280;11820;48.738;9.092;2023-04-08T03:28:01;96516.50;;;7.88;nan
23303;BME280;11820;48.738;9.092;2023-04-08T03:30:26;96514.66;;;7.97;nan
23303;BME280;11820;48.738;9.092;2023-04-08T03:32:52;96514.13;;;8.01;nan
23303;BME280;11820;48.738;9.092;2023-04-08T03:35:17;96513.84;;;7.96;nan
23303;BME280;11820;48.738;9.092;2023-04-08T03:37:42;96516.63;;;7.95;nan
23303;BME280;11820;48.738;9.092;2023-04-08T03:40:08;96518.31;;;8.02;nan
23303;BME280;11820;48.738;9.092;2023-04-08T03:42:33;96521.53;;;8.04;nan
23303;BME280;11820;48.738;9.092;2023-04-08T03:44:59;96519.75;;;8.04;nan
23303;BME280;11820;48.738;9.092;2023-04-08T03:47:24;96518.72;;;8.13;nan
23303;BME280;11820;48.738;9.092;2023-04-08T03:49:52;96515.97;;;8.15;nan
23303;BME280;11820;48.738;9.092;2023-04-08T03:52:17;96516.41;;;8.04;nan
23303;BME280;11820;48.738;9.092;2023-04-08T03:54:42;96526.09;;;8.16;nan
23303;BME280;11820;48.738;9.092;2023-04-08T03:57:08;96523.09;;;8.13;nan
23303;BME280;11820;48.738;9.092;2023-04-08T03:59:33;96521.47;;;8.12;nan
23303;BME280;11820;48.738;9.092;2023-04-08T04:02:00;96513.81;;;8.04;nan
23303;BME280;11820;48.738;9.092;2023-04-08T04:04:25;96517.34;;;8.03;nan
23303;BME280;11820;48.738;9.092;2023-04-08T04:06:51;96519.00;;;7.96;nan
23303;BME280;11820;48.738;9.092;2023-04-08T04:09:16;96514.41;;;7.84;nan
23303;BME280;11820;48.738;9.092;2023-04-08T04:11:41;96515.53;;;7.89;nan
23303;BME280;11820;48.738;9.092;2023-04-08T04:14:07;96517.59;;;7.94;nan
23303;BME280;11820;48.738;9.092;2023-04-08T04:16:32;96514.84;;;7.95;nan
23303;BME280;11820;48.738;9.092;2023-04-08T04:18:57;96525.59;;;7.98;nan
23303;BME280;11820;48.738;9.092;2023-04-08T04:21:23;96526.03;;;7.80;nan
23303;BME280;11820;48.738;9.092;2023-04-08T04:23:48;96531.25;;;7.94;nan
23303;BME280;11820;48.738;9.092;2023-04-08T04:26:13;96530.94;;;7.67;nan
23303;BME280;11820;48.738;9.092;2023-04-08T04:28:39;96528.38;;;7.67;nan
23303;BME280;11820;48.738;9.092;2023-04-08T04:31:04;96528.81;;;7.70;nan
23303;BME280;11820;48.738;9.092;2023-04-08T04:33:30;96530.59;;;7.70;nan
23303;BME280;11820;48.738;9.092;2023-04-08T04:35:55;96529.78;;;7.69;nan
23303;BME280;11820;48.738;9.092;2023-04-08T04:38:21;96536.03;;;7.75;nan
23303;BME280;11820;48.738;9.092;2023-04-08T04:40:46;96531.38;;;7.70;nan
23303;BME280;11820;48.738;9.092;2023-04-08T04:43:11;96536.88;;;7.67;nan
23303;BME280;11820;48.738;9.092;2023-04-08T04:45:37;96530.75;;;7.68;nan
23303;BME280;11820;48.738;9.092;2023-04-08T04:48:02;96542.59;;;7.77;nan
23303;BME280;11820;48.738;9.092;2023-04-08T04:50:28;96542.66;;;7.69;nan
23303;BME280;11820;48.738;9.092;2023-04-08T04:52:53;96544.09;;;7.72;nan
23303;BME280;11820;48.738;9.092;2023-04-08T04:55:18;96541.75;;;7.85;nan
23303;BME280;11820;48.738;9.092;2023-04-08T04:57:44;96534.84;;;7.85;nan
23303;BME280;11820;48.738;9.092;2023-04-08T05:00:09;96546.16;;;7.76;nan
23303;BME280;11820;48.738;9.092;2023-04-08T05:02:35;96549.41;;;7.70;nan
23303;BME280;11820;48.738;9.092;2023-04-08T05:05:01;96543.72;;;7.83;nan
23303;BME280;11820;48.738;9.092;2023-04-08T05:07:26;96550.56;;;7.60;nan
23303;BME280;11820;48.738;9.092;2023-04-08T05:09:52;96546.16;;;7.76;nan
23303;BME280;11820;48.738;9.092;2023-04-08T05:12:18;96550.88;;;7.95;nan
23303;BME280;11820;48.738;9.092;2023-04-08T05:14:45;96558.44;;;7.97;nan
23303;BME280;11820;48.738;9.092;2023-04-08T05:17:10;96560.94;;;7.82;nan
23303;BME280;11820;48.738;9.092;2023-04-08T05:19:36;96561.13;;;8.03;nan
23303;BME280;11820;48.738;9.092;2023-04-08T05:22:01;96564.78;;;7.78;nan
23303;BME280;11820;48.738;9.092;2023-04-08T05:24:26;96560.66;;;7.69;nan
23303;BME280;11820;48.738;9.092;2023-04-08T05:26:51;96560.25;;;7.88;nan
23303;BME280;11820;48.738;9.092;2023-04-08T05:29:17;96563.19;;;7.77;nan
23303;BME280;11820;48.738;9.092;2023-04-08T05:31:43;96558.72;;;7.79;nan
23303;BME280;11820;48.738;9.092;2023-04-08T05:34:09;96561.31;;;7.71;nan
23303;BME280;11820;48.738;9.092;2023-04-08T05:36:35;96570.50;;;7.66;nan
23303;BME280;11820;48.738;9.092;2023-04-08T05:39:00;96571.16;;;7.68;nan
23303;BME280;11820;48.738;9.092;2023-04-08T05:41:25;96574.00;;;7.73;nan
23303;BME280;11820;48.738;9.092;2023-04-08T05:43:51;96564.50;;;7.73;nan
23303;BME280;11820;48.738;9.092;2023-04-08T05:46:16;96572.16;;;7.89;nan
23303;BME280;11820;48.738;9.092;2023-04-08T05:48:41;96577.31;;;7.89;nan
23303;BME280;11820;48.738;9.092;2023-04-08T05:51:15;96581.13;;;7.93;nan
23303;BME280;11820;48.738;9.092;2023-04-08T05:53:42;96587.88;;;7.94;nan
23303;BME280;11820;48.738;9.092;2023-04-08T05:56:08;96589.44;;;8.03;nan
23303;BME280;11820;48.738;9.092;2023-04-08T05:58:34;96590.59;;;8.00;nan
23303;BME280;11820;48.738;9.092;2023-04-08T06:00:59;96594.34;;;7.90;nan
23303;BME280;11820;48.738;9.092;2023-04-08T06:03:24;96587.59;;;7.89;nan
23303;BME280;11820;48.738;9.092;2023-04-08T06:05:50;96594.56;;;7.81;nan
23303;BME280;11820;48.738;9.092;2023-04-08T06:08:15;96600.91;;;7.62;nan
23303;BME280;11820;48.738;9.092;2023-04-08T06:10:48;96598.91;;;7.80;nan
23303;BME280;11820;48.738;9.092;2023-04-08T06:13:14;96601.41;;;7.66;nan
23303;BME280;11820;48.738;9.092;2023-04-08T06:15:40;96611.88;;;7.56;nan
23303;BME280;11820;48.738;9.092;2023-04-08T06:18:05;96598.97;;;7.64;nan
23303;BME280;11820;48.738;9.092;2023-04-08T06:20:30;96606.94;;;7.77;nan
23303;BME280;11820;48.738;9.092;2023-04-08T06:22:56;96607.28;;;7.74;nan
23303;BME280;11820;48.738;9.092;2023-04-08T06:25:21;96613.09;;;7.68;nan
23303;BME280;11820;48.738;9.092;2023-04-08T06:27:47;96606.13;;;7.85;nan
23303;BME280;11820;48.738;9.092;2023-04-08T06:30:12;96617.25;;;7.77;nan
23303;BME280;11820;48.738;9.092;2023-04-08T06:32:37;96607.06;;;7.92;nan
23303;BME280;11820;48.738;9.092;2023-04-08T06:35:03;96611.41;;;7.91;nan
23303;BME280;11820;48.738;9.092;2023-04-08T06:37:28;96615.88;;;7.97;nan
23303;BME280;11820;48.738;9.092;2023-04-08T06:39:54;96618.53;;;7.81;nan
23303;BME280;11820;48.738;9.092;2023-04-08T06:42:19;96620.63;;;7.78;nan
23303;BME280;11820;48.738;9.092;2023-04-08T06:44:44;96619.50;;;7.80;nan
23303;BME280;11820;48.738;9.092;2023-04-08T06:47:10;96622.09;;;7.72;nan
23303;BME280;11820;48.738;9.092;2023-04-08T06:49:35;96622.53;;;7.84;nan
23303;BME280;11820;48.738;9.092;2023-04-08T06:52:01;96626.97;;;7.97;nan
23303;BME280;11820;48.738;9.092;2023-04-08T06:54:26;96623.44;;;7.98;nan
23303;BME280;11820;48.738;9.092;2023-04-08T06:56:52;96618.72;;;8.10;nan
23303;BME280;11820;48.738;9.092;2023-04-08T06:59:17;96627.66;;;8.30;nan
23303;BME280;11820;48.738;9.092;2023-04-08T07:01:42;96623.19;;;8.16;nan
23303;BME280;11820;48.738;9.092;2023-04-08T07:04:08;96621.63;;;8.07;nan
23303;BME280;11820;48.738;9.092;2023-04-08T07:06:33;96628.38;;;8.08;nan
23303;BME280;11820;48.738;9.092;2023-04-08T07:08:58;96636.59;;;8.03;nan
23303;BME280;11820;48.738;9.092;2023-04-08T07:11:24;96637.03;;;8.15;nan
23303;BME280;11820;48.738;9.092;2023-04-08T07:13:50;96633.50;;;7.78;nan
23303;BME280;11820;48.738;9.092;2023-04-08T07:16:16;96633.59;;;7.92;nan
23303;BME280;11820;48.738;9.092;2023-04-08T07:18:41;96630.25;;;7.84;nan
23303;BME280;11820;48.738;9.092;2023-04-08T07:21:07;96639.91;;;7.82;nan
23303;BME280;11820;48.738;9.092;2023-04-08T07:23:33;96639.66;;;7.99;nan
23303;BME280;11820;48.738;9.092;2023-04-08T07:26:02;96643.22;;;7.98;nan
23303;BME280;11820;48.738;9.092;2023-04-08T07:28:28;96645.59;;;8.07;nan
23303;BME280;11820;48.738;9.092;2023-04-08T07:30:54;96652.88;;;8.04;nan
23303;BME280;11820;48.738;9.092;2023-04-08T07:33:19;96655.06;;;8.15;nan
23303;BME280;11820;48.738;9.092;2023-04-08T07:35:45;96659.25;;;8.16;nan
23303;BME280;11820;48.738;9.092;2023-04-08T07:38:10;96663.97;;;8.04;nan
23303;BME280;11820;48.738;9.092;2023-04-08T07:40:37;96659.63;;;8.05;nan
23303;BME280;11820;48.738;9.092;2023-04-08T07:43:02;96661.97;;;8.14;nan
23303;BME280;11820;48.738;9.092;2023-04-08T07:45:28;96658.41;;;8.15;nan
23303;BME280;11820;48.738;9.092;2023-04-08T07:47:53;96662.09;;;8.29;nan
23303;BME280;11820;48.738;9.092;2023-04-08T07:50:18;96656.91;;;8.37;nan
23303;BME280;11820;48.738;9.092;2023-04-08T07:52:44;96661.31;;;8.51;nan
23303;BME280;11820;48.738;9.092;2023-04-08T07:55:09;96654.63;;;8.87;nan
23303;BME280;11820;48.738;9.092;2023-04-08T07:57:34;96665.22;;;8.92;nan
23303;BME280;11820;48.738;9.092;2023-04-08T08:00:00;96665.84;;;8.94;nan
23303;BME280;11820;48.738;9.092;2023-04-08T08:02:25;96662.28;;;8.95;nan
23303;BME280;11820;48.738;9.092;2023-04-08T08:04:50;96665.44;;;8.82;nan
23303;BME280;11820;48.738;9.092;2023-04-08T08:07:16;96666.06;;;9.07;nan
23303;BME280;11820;48.738;9.092;2023-04-08T08:09:41;96670.53;;;9.13;nan
23303;BME280;11820;48.738;9.092;2023-04-08T08:12:06;96664.75;;;9.11;nan
23303;BME280;11820;48.738;9.092;2023-04-08T08:14:31;96661.63;;;9.15;nan
23303;BME280;11820;48.738;9.092;2023-04-08T08:16:57;96670.72;;;8.89;nan
23303;BME280;11820;48.738;9.092;2023-04-08T08:19:22;96667.69;;;9.08;nan
23303;BME280;11820;48.738;9.092;2023-04-08T08:21:48;96670.81;;;9.18;nan
23303;BME280;11820;48.738;9.092;2023-04-08T08:24:13;96675.16;;;9.17;nan
23303;BME280;11820;48.738;9.092;2023-04-08T08:26:38;96676.44;;;9.21;nan
23303;BME280;11820;48.738;9.092;2023-04-08T08:29:04;96677.84;;;9.24;nan
23303;BME280;11820;48.738;9.092;2023-04-08T08:31:32;96672.53;;;9.25;nan
23303;BME280;11820;48.738;9.092;2023-04-08T08:33:58;96691.22;;;9.27;nan
23303;BME280;11820;48.738;9.092;2023-04-08T08:36:23;96687.19;;;9.25;nan
23303;BME280;11820;48.738;9.092;2023-04-08T08:38:48;96685.53;;;9.32;nan
23303;BME280;11820;48.738;9.092;2023-04-08T08:41:15;96698.22;;;9.19;nan
23303;BME280;11820;48.738;9.092;2023-04-08T08:43:41;96696.97;;;9.15;nan
23303;BME280;11820;48.738;9.092;2023-04-08T08:46:10;96701.53;;;9.27;nan
23303;BME280;11820;48.738;9.092;2023-04-08T08:48:38;96701.63;;;9.34;nan
23303;BME280;11820;48.738;9.092;2023-04-08T08:51:11;96690.38;;;9.63;nan
23303;BME280;11820;48.738;9.092;2023-04-08T08:53:37;96694.47;;;9.58;nan
23303;BME280;11820;48.738;9.092;2023-04-08T08:56:03;96694.72;;;9.49;nan
23303;BME280;11820;48.738;9.092;2023-04-08T08:58:29;96695.53;;;9.49;nan
23303;BME280;11820;48.738;9.092;2023-04-08T09:00:54;96700.50;;;9.65;nan
23303;BME280;11820;48.738;9.092;2023-04-08T09:03:23;96704.25;;;9.63;nan
23303;BME280;11820;48.738;9.092;2023-04-08T09:05:59;96706.38;;;9.59;nan
23303;BME280;11820;48.738;9.092;2023-04-08T09:10:56;96699.31;;;10.04;nan
23303;BME280;11820;48.738;9.092;2023-04-08T09:13:35;96704.53;;;9.96;nan
23303;BME280;11820;48.738;9.092;2023-04-08T09:16:05;96697.69;;;10.18;nan
23303;BME280;11820;48.738;9.092;2023-04-08T09:18:32;96707.69;;;10.21;nan
23303;BME280;11820;48.738;9.092;2023-04-08T09:21:01;96702.03;;;10.46;nan
23303;BME280;11820;48.738;9.092;2023-04-08T09:23:54;96703.00;;;10.45;nan
23303;BME280;11820;48.738;9.092;2023-04-08T09:26:23;96704.09;;;10.36;nan
23303;BME280;11820;48.738;9.092;2023-04-08T09:29:08;96701.22;;;10.46;nan
23303;BME280;11820;48.738;9.092;2023-04-08T09:31:35;96712.66;;;10.37;nan
23303;BME280;11820;48.738;9.092;2023-04-08T09:34:10;96708.56;;;10.28;nan
23303;BME280;11820;48.738;9.092;2023-04-08T09:36:36;96713.88;;;10.41;nan
23303;BME280;11820;48.738;9.092;2023-04-08T09:39:04;96714.78;;;10.48;nan
23303;BME280;11820;48.738;9.092;2023-04-08T09:41:33;96716.75;;;10.31;nan
23303;BME280;11820;48.738;9.092;2023-04-08T09:43:59;96718.34;;;10.47;nan
23303;BME280;11820;48.738;9.092;2023-04-08T09:46:26;96708.78;;;10.47;nan
23303;BME280;11820;48.738;9.092;2023-04-08T09:49:04;96723.06;;;10.43;nan
23303;BME280;11820;48.738;9.092;2023-04-08T09:51:49;96713.63;;;10.36;nan
23303;BME280;11820;48.738;9.092;2023-04-08T09:54:18;96712.00;;;10.49;nan
23303;BME280;11820;48.738;9.092;2023-04-08T09:56:53;96709.31;;;10.78;nan
23303;BME280;11820;48.738;9.092;2023-04-08T09:59:24;96705.50;;;10.74;nan
23303;BME280;11820;48.738;9.092;2023-04-08T10:01:53;96714.06;;;10.96;nan
23303;BME280;11820;48.738;9.092;2023-04-08T10:04:22;96712.38;;;10.82;nan
23303;BME280;11820;48.738;9.092;2023-04-08T10:06:51;96717.97;;;11.06;nan
23303;BME280;11820;48.738;9.092;2023-04-08T10:09:21;96712.03;;;11.33;nan
23303;BME280;11820;48.738;9.092;2023-04-08T10:11:47;96720.44;;;10.93;nan
23303;BME280;11820;48.738;9.092;2023-04-08T10:14:13;96723.50;;;11.03;nan
23303;BME280;11820;48.738;9.092;2023-04-08T10:16:38;96719.63;;;10.93;nan
23303;BME280;11820;48.738;9.092;2023-04-08T10:19:36;96717.28;;;11.39;nan
23303;BME280;11820;48.738;9.092;2023-04-08T10:27:40;96713.75;;;11.47;nan
23303;BME280;11820;48.738;9.092;2023-04-08T10:32:54;96703.03;;;11.29;nan
23303;BME280;11820;48.738;9.092;2023-04-08T10:35:42;96706.22;;;11.04;nan
23303;BME280;11820;48.738;9.092;2023-04-08T10:38:11;96710.34;;;10.98;nan
23303;BME280;11820;48.738;9.092;2023-04-08T10:40:38;96711.53;;;10.81;nan
23303;BME280;11820;48.738;9.092;2023-04-08T10:43:06;96716.09;;;10.79;nan
23303;BME280;11820;48.738;9.092;2023-04-08T10:45:32;96718.44;;;10.74;nan
23303;BME280;11820;48.738;9.092;2023-04-08T10:48:28;96715.56;;;10.48;nan
23303;BME280;11820;48.738;9.092;2023-04-08T10:50:54;96718.44;;;10.39;nan
23303;BME280;11820;48.738;9.092;2023-04-08T10:53:38;96718.63;;;10.37;nan
23303;BME280;11820;48.738;9.092;2023-04-08T10:56:13;96717.38;;;10.48;nan
23303;BME280;11820;48.738;9.092;2023-04-08T10:58:53;96718.34;;;10.47;nan
23303;BME280;11820;48.738;9.092;2023-04-08T11:01:21;96716.81;;;10.38;nan
23303;BME280;11820;48.738;9.092;2023-04-08T11:03:48;96716.50;;;10.26;nan
23303;BME280;11820;48.738;9.092;2023-04-08T11:06:14;96717.69;;;10.09;nan
23303;BME280;11820;48.738;9.092;2023-04-08T11:08:39;96714.81;;;10.04;nan
23303;BME280;11820;48.738;9.092;2023-04-08T11:11:05;96715.22;;;9.93;nan
23303;BME280;11820;48.738;9.092;2023-04-08T11:13:42;96706.63;;;10.01;nan
23303;BME280;11820;48.738;9.092;2023-04-08T11:16:09;96721.66;;;9.97;nan
23303;BME280;11820;48.738;9.092;2023-04-08T11:18:36;96711.94;;;9.99;nan
23303;BME280;11820;48.738;9.092;2023-04-08T11:21:03;96720.66;;;9.98;nan
23303;BME280;11820;48.738;9.092;2023-04-08T11:23:32;96714.09;;;9.96;nan
23303;BME280;11820;48.738;9.092;2023-04-08T11:25:57;96718.69;;;10.00;nan
23303;BME280;11820;48.738;9.092;2023-04-08T11:28:23;96716.25;;;10.07;nan
23303;BME280;11820;48.738;9.092;2023-04-08T11:30:50;96716.88;;;10.09;nan
23303;BME280;11820;48.738;9.092;2023-04-08T11:33:15;96717.03;;;10.07;nan
23303;BME280;11820;48.738;9.092;2023-04-08T11:35:42;96720.41;;;9.93;nan
23303;BME280;11820;48.738;9.092;2023-04-08T11:38:09;96719.69;;;9.99;nan
23303;BME280;11820;48.738;9.092;2023-04-08T11:40:35;96711.94;;;10.14;nan
23303;BME280;11820;48.738;9.092;2023-04-08T11:43:11;96710.00;;;10.16;nan
23303;BME280;11820;48.738;9.092;2023-04-08T11:45:40;96701.34;;;10.23;nan
23303;BME280;11820;48.738;9.092;2023-04-08T11:48:13;96699.50;;;10.17;nan
23303;BME280;11820;48.738;9.092;2023-04-08T11:50:40;96708.66;;;10.20;nan
23303;BME280;11820;48.738;9.092;2023-04-08T11:53:24;96707.75;;;10.27;nan
23303;BME280;11820;48.738;9.092;2023-04-08T11:55:49;96705.63;;;10.16;nan
23303;BME280;11820;48.738;9.092;2023-04-08T11:58:15;96711.16;;;10.28;nan
23303;BME280;11820;48.738;9.092;2023-04-08T12:00:41;96712.66;;;10.22;nan
23303;BME280;11820;48.738;9.092;2023-04-08T12:03:08;96708.47;;;10.21;nan
23303;BME280;11820;48.738;9.092;2023-04-08T12:05:33;96708.47;;;10.21;nan
23303;BME280;11820;48.738;9.092;2023-04-08T12:07:59;96706.41;;;10.17;nan
23303;BME280;11820;48.738;9.092;2023-04-08T12:10:24;96703.41;;;10.28;nan
23303;BME280;11820;48.738;9.092;2023-04-08T12:12:50;96711.31;;;10.26;nan
23303;BME280;11820;48.738;9.092;2023-04-08T12:15:16;96716.84;;;10.23;nan
23303;BME280;11820;48.738;9.092;2023-04-08T12:17:41;96711.84;;;10.36;nan
23303;BME280;11820;48.738;9.092;2023-04-08T12:20:08;96707.38;;;10.30;nan
23303;BME280;11820;48.738;9.092;2023-04-08T12:22:34;96714.53;;;10.28;nan
23303;BME280;11820;48.738;9.092;2023-04-08T12:24:59;96718.53;;;10.31;nan
23303;BME280;11820;48.738;9.092;2023-04-08T12:27:26;96714.53;;;10.28;nan
23303;BME280;11820;48.738;9.092;2023-04-08T12:29:52;96713.75;;;10.28;nan
23303;BME280;11820;48.738;9.092;2023-04-08T12:32:17;96712.88;;;10.21;nan
23303;BME280;11820;48.738;9.092;2023-04-08T12:34:43;96721.66;;;9.97;nan
23303;BME280;11820;48.738;9.092;2023-04-08T12:37:08;96718.53;;;9.87;nan
23303;BME280;11820;48.738;9.092;2023-04-08T12:39:34;96725.19;;;9.82;nan
23303;BME280;11820;48.738;9.092;2023-04-08T12:42:00;96721.03;;;9.81;nan
23303;BME280;11820;48.738;9.092;2023-04-08T12:44:25;96718.53;;;9.87;nan
23303;BME280;11820;48.738;9.092;2023-04-08T12:46:50;96722.00;;;9.80;nan
23303;BME280;11820;48.738;9.092;2023-04-08T12:49:16;96724.13;;;9.76;nan
23303;BME280;11820;48.738;9.092;2023-04-08T12:51:41;96717.34;;;9.75;nan
23303;BME280;11820;48.738;9.092;2023-04-08T12:54:06;96721.47;;;9.84;nan
23303;BME280;11820;48.738;9.092;2023-04-08T12:56:32;96719.41;;;9.94;nan
23303;BME280;11820;48.738;9.092;2023-04-08T12:58:58;96720.50;;;10.00;nan
23303;BME280;11820;48.738;9.092;2023-04-08T13:01:23;96720.75;;;9.90;nan
23303;BME280;11820;48.738;9.092;2023-04-08T13:03:48;96717.97;;;9.92;nan
23303;BME280;11820;48.738;9.092;2023-04-08T13:06:14;96723.41;;;9.82;nan
23303;BME280;11820;48.738;9.092;2023-04-08T13:08:39;96712.81;;;9.92;nan
23303;BME280;11820;48.738;9.092;2023-04-08T13:11:06;96716.94;;;9.72;nan
23303;BME280;11820;48.738;9.092;2023-04-08T13:13:32;96721.91;;;9.73;nan
23303;BME280;11820;48.738;9.092;2023-04-08T13:15:57;96721.97;;;9.65;nan
23303;BME280;11820;48.738;9.092;2023-04-08T13:18:22;96726.78;;;9.68;nan
23303;BME280;11820;48.738;9.092;2023-04-08T13:20:48;96719.78;;;9.77;nan
23303;BME280;11820;48.738;9.092;2023-04-08T13:23:13;96714.00;;;9.89;nan
23303;BME280;11820;48.738;9.092;2023-04-08T13:25:39;96713.28;;;9.95;nan
23303;BME280;11820;48.738;9.092;2023-04-08T13:28:04;96715.84;;;9.95;nan
23303;BME280;11820;48.738;9.092;2023-04-08T13:30:30;96721.28;;;10.00;nan
23303;BME280;11820;48.738;9.092;2023-04-08T13:32:55;96717.38;;;10.04;nan
23303;BME280;11820;48.738;9.092;2023-04-08T13:35:20;96714.50;;;9.99;nan
23303;BME280;11820;48.738;9.092;2023-04-08T13:37:46;96721.28;;;10.00;nan
23303;BME280;11820;48.738;9.092;2023-04-08T13:40:11;96718.31;;;10.11;nan
23303;BME280;11820;48.738;9.092;2023-04-08T13:42:37;96716.88;;;10.09;nan
23303;BME280;11820;48.738;9.092;2023-04-08T13:45:03;96715.88;;;10.10;nan
23303;BME280;11820;48.738;9.092;2023-04-08T13:47:28;96714.38;;;10.15;nan
23303;BME280;11820;48.738;9.092;2023-04-08T13:49:54;96721.56;;;10.05;nan